sensor_id;sensor_type;location;lat;lon;timestamp;temperature;humidity
41876;DHT22;27555;50.808;4.402;2023-07-09T00:00:57;24.40;99.90
41876;DHT22;27555;50.808;4.402;2023-07-09T00:03:22;24.50;99.90
41876;DHT22;27555;50.808;4.402;2023-07-09T00:05:48;24.60;99.90
41876;DHT22;27555;50.808;4.402;2023-07-09T00:08:30;24.40;99.90
41876;DHT22;27555;50.808;4.402;2023-07-09T00:10:57;24.30;99.90
41876;DHT22;27555;50.808;4.402;2023-07-09T00:13:25;24.20;99.90
41876;DHT22;27555;50.808;4.402;2023-07-09T00:15:52;24.20;99.90
41876;DHT22;27555;50.808;4.402;2023-07-09T00:18:18;24.20;99.90
41876;DHT22;27555;50.808;4.402;2023-07-09T00:20:44;24.20;99.90
41876;DHT22;27555;50.808;4.402;2023-07-09T00:23:10;24.20;99.90
41876;DHT22;27555;50.808;4.402;2023-07-09T00:25:42;24.10;99.90
41876;DHT22;27555;50.808;4.402;2023-07-09T00:28:16;24.30;99.90
41876;DHT22;27555;50.808;4.402;2023-07-09T00:30:46;24.20;99.90
41876;DHT22;27555;50.808;4.402;2023-07-09T00:33:13;24.30;99.90
41876;DHT22;27555;50.808;4.402;2023-07-09T00:35:42;24.10;99.90
41876;DHT22;27555;50.808;4.402;2023-07-09T00:38:14;24.00;99.90
41876;DHT22;27555;50.808;4.402;2023-07-09T00:40:58;24.00;99.90
41876;DHT22;27555;50.808;4.402;2023-07-09T00:43:28;24.00;99.90
41876;DHT22;27555;50.808;4.402;2023-07-09T00:48:43;23.90;99.90
41876;DHT22;27555;50.808;4.402;2023-07-09T00:51:15;23.90;99.90
41876;DHT22;27555;50.808;4.402;2023-07-09T00:53:43;23.90;99.90
41876;DHT22;27555;50.808;4.402;2023-07-09T00:56:14;23.90;99.90
41876;DHT22;27555;50.808;4.402;2023-07-09T00:58:41;23.80;99.90
41876;DHT22;27555;50.808;4.402;2023-07-09T01:01:12;23.90;99.90
41876;DHT22;27555;50.808;4.402;2023-07-09T01:03:45;23.80;99.90
41876;DHT22;27555;50.808;4.402;2023-07-09T01:06:13;23.80;99.90
41876;DHT22;27555;50.808;4.402;2023-07-09T01:08:40;23.80;99.90
41876;DHT22;27555;50.808;4.402;2023-07-09T01:11:20;23.80;99.90
41876;DHT22;27555;50.808;4.402;2023-07-09T01:13:48;23.70;99.90
41876;DHT22;27555;50.808;4.402;2023-07-09T01:16:16;23.80;99.90
41876;DHT22;27555;50.808;4.402;2023-07-09T01:18:42;23.70;99.90
41876;DHT22;27555;50.808;4.402;2023-07-09T01:21:10;23.70;99.90
41876;DHT22;27555;50.808;4.402;2023-07-09T01:23:44;23.70;99.90
41876;DHT22;27555;50.808;4.402;2023-07-09T01:26:16;23.70;99.90
41876;DHT22;27555;50.808;4.402;2023-07-09T01:28:42;23.60;99.90
41876;DHT22;27555;50.808;4.402;2023-07-09T01:31:09;23.60;99.90
41876;DHT22;27555;50.808;4.402;2023-07-09T01:33:35;23.60;99.90
41876;DHT22;27555;50.808;4.402;2023-07-09T01:36:02;23.60;99.90
41876;DHT22;27555;50.808;4.402;2023-07-09T01:38:27;23.60;99.90
41876;DHT22;27555;50.808;4.402;2023-07-09T01:40:59;23.50;99.90
41876;DHT22;27555;50.808;4.402;2023-07-09T01:43:26;23.50;99.90
41876;DHT22;27555;50.808;4.402;2023-07-09T01:45:52;23.60;99.90
41876;DHT22;27555;50.808;4.402;2023-07-09T01:48:18;23.50;99.90
41876;DHT22;27555;50.808;4.402;2023-07-09T01:50:46;23.50;99.90
41876;DHT22;27555;50.808;4.402;2023-07-09T01:53:16;23.50;99.90
41876;DHT22;27555;50.808;4.402;2023-07-09T01:55:42;23.50;99.90
41876;DHT22;27555;50.808;4.402;2023-07-09T01:58:08;23.50;99.90
41876;DHT22;27555;50.808;4.402;2023-07-09T02:00:34;23.50;99.90
41876;DHT22;27555;50.808;4.402;2023-07-09T02:03:00;23.40;99.90
41876;DHT22;27555;50.808;4.402;2023-07-09T02:05:29;23.40;99.90
41876;DHT22;27555;50.808;4.402;2023-07-09T02:07:55;23.40;99.90
41876;DHT22;27555;50.808;4.402;2023-07-09T02:10:21;23.40;99.90
41876;DHT22;27555;50.808;4.402;2023-07-09T02:12:47;23.30;99.90
41876;DHT22;27555;50.808;4.402;2023-07-09T02:15:13;23.40;99.90
41876;DHT22;27555;50.808;4.402;2023-07-09T02:17:40;23.30;99.90
41876;DHT22;27555;50.808;4.402;2023-07-09T02:20:06;23.30;99.90
41876;DHT22;27555;50.808;4.402;2023-07-09T02:22:33;23.20;99.90
41876;DHT22;27555;50.808;4.402;2023-07-09T02:24:59;23.10;99.90
41876;DHT22;27555;50.808;4.402;2023-07-09T02:27:26;23.00;99.90
41876;DHT22;27555;50.808;4.402;2023-07-09T02:29:51;23.00;99.90
41876;DHT22;27555;50.808;4.402;2023-07-09T02:32:20;22.80;99.90
41876;DHT22;27555;50.808;4.402;2023-07-09T02:34:46;22.80;99.90
41876;DHT22;27555;50.808;4.402;2023-07-09T02:37:15;22.70;99.90
41876;DHT22;27555;50.808;4.402;2023-07-09T02:39:42;22.60;99.90
41876;DHT22;27555;50.808;4.402;2023-07-09T02:42:10;22.50;99.90
41876;DHT22;27555;50.808;4.402;2023-07-09T02:44:36;22.50;99.90
41876;DHT22;27555;50.808;4.402;2023-07-09T02:47:02;22.50;99.90
41876;DHT22;27555;50.808;4.402;2023-07-09T02:49:28;22.50;99.90
41876;DHT22;27555;50.808;4.402;2023-07-09T02:51:53;22.70;99.90
41876;DHT22;27555;50.808;4.402;2023-07-09T02:54:19;22.70;99.90
41876;DHT22;27555;50.808;4.402;2023-07-09T02:56:45;22.70;99.90
41876;DHT22;27555;50.808;4.402;2023-07-09T02:59:10;22.90;99.90
41876;DHT22;27555;50.808;4.402;2023-07-09T03:01:37;23.00;99.90
41876;DHT22;27555;50.808;4.402;2023-07-09T03:04:02;23.20;99.90
41876;DHT22;27555;50.808;4.402;2023-07-09T03:06:29;23.40;99.90
41876;DHT22;27555;50.808;4.402;2023-07-09T03:08:54;23.60;99.90
41876;DHT22;27555;50.808;4.402;2023-07-09T03:11:21;23.70;99.90
41876;DHT22;27555;50.808;4.402;2023-07-09T03:13:47;23.90;99.90
41876;DHT22;27555;50.808;4.402;2023-07-09T03:16:14;23.90;99.90
41876;DHT22;27555;50.808;4.402;2023-07-09T03:18:40;24.00;99.90
41876;DHT22;27555;50.808;4.402;2023-07-09T03:21:06;24.00;99.90
41876;DHT22;27555;50.808;4.402;2023-07-09T03:23:31;23.90;99.90
41876;DHT22;27555;50.808;4.402;2023-07-09T03:25:57;23.90;99.90
41876;DHT22;27555;50.808;4.402;2023-07-09T03:28:24;23.90;99.90
41876;DHT22;27555;50.808;4.402;2023-07-09T03:30:54;24.00;99.90
41876;DHT22;27555;50.808;4.402;2023-07-09T03:33:20;24.00;99.90
41876;DHT22;27555;50.808;4.402;2023-07-09T03:35:46;24.00;99.90
41876;DHT22;27555;50.808;4.402;2023-07-09T03:38:12;23.90;99.90
41876;DHT22;27555;50.808;4.402;2023-07-09T03:40:38;23.90;99.90
41876;DHT22;27555;50.808;4.402;2023-07-09T03:43:08;23.80;99.90
41876;DHT22;27555;50.808;4.402;2023-07-09T03:45:36;23.80;99.90
41876;DHT22;27555;50.808;4.402;2023-07-09T03:48:03;23.80;99.90
41876;DHT22;27555;50.808;4.402;2023-07-09T03:50:28;23.70;99.90
41876;DHT22;27555;50.808;4.402;2023-07-09T03:52:54;23.80;99.90
41876;DHT22;27555;50.808;4.402;2023-07-09T03:55:20;23.80;99.90
41876;DHT22;27555;50.808;4.402;2023-07-09T03:57:46;23.80;99.90
41876;DHT22;27555;50.808;4.402;2023-07-09T04:00:13;23.90;99.90
41876;DHT22;27555;50.808;4.402;2023-07-09T04:02:39;23.80;99.90
41876;DHT22;27555;50.808;4.402;2023-07-09T04:05:06;23.90;99.90
41876;DHT22;27555;50.808;4.402;2023-07-09T04:07:34;24.00;99.90
41876;DHT22;27555;50.808;4.402;2023-07-09T04:09:59;24.00;99.90
41876;DHT22;27555;50.808;4.402;2023-07-09T04:12:25;23.90;99.90
41876;DHT22;27555;50.808;4.402;2023-07-09T04:14:51;23.80;99.90
41876;DHT22;27555;50.808;4.402;2023-07-09T04:17:16;23.70;99.90
41876;DHT22;27555;50.808;4.402;2023-07-09T04:19:42;23.80;99.90
41876;DHT22;27555;50.808;4.402;2023-07-09T04:22:10;23.70;99.90
41876;DHT22;27555;50.808;4.402;2023-07-09T04:24:36;23.80;99.90
41876;DHT22;27555;50.808;4.402;2023-07-09T04:27:02;23.90;99.90
41876;DHT22;27555;50.808;4.402;2023-07-09T04:29:29;23.90;99.90
41876;DHT22;27555;50.808;4.402;2023-07-09T04:31:55;24.00;99.90
41876;DHT22;27555;50.808;4.402;2023-07-09T04:34:20;23.90;99.90
41876;DHT22;27555;50.808;4.402;2023-07-09T04:36:46;23.90;99.90
41876;DHT22;27555;50.808;4.402;2023-07-09T04:39:12;23.90;99.90
41876;DHT22;27555;50.808;4.402;2023-07-09T04:41:37;23.90;99.90
41876;DHT22;27555;50.808;4.402;2023-07-09T04:44:03;24.00;99.90
41876;DHT22;27555;50.808;4.402;2023-07-09T04:46:28;24.00;99.90
41876;DHT22;27555;50.808;4.402;2023-07-09T04:48:54;24.10;99.90
41876;DHT22;27555;50.808;4.402;2023-07-09T04:51:21;24.10;99.90
41876;DHT22;27555;50.808;4.402;2023-07-09T04:53:47;24.10;99.90
41876;DHT22;27555;50.808;4.402;2023-07-09T04:56:12;24.10;99.90
41876;DHT22;27555;50.808;4.402;2023-07-09T04:58:38;24.20;99.90
41876;DHT22;27555;50.808;4.402;2023-07-09T05:01:04;24.10;99.90
41876;DHT22;27555;50.808;4.402;2023-07-09T05:03:29;24.10;99.90
41876;DHT22;27555;50.808;4.402;2023-07-09T05:05:55;24.10;99.90
41876;DHT22;27555;50.808;4.402;2023-07-09T05:08:20;24.20;99.90
41876;DHT22;27555;50.808;4.402;2023-07-09T05:10:50;24.20;99.90
41876;DHT22;27555;50.808;4.402;2023-07-09T05:13:16;24.30;99.90
41876;DHT22;27555;50.808;4.402;2023-07-09T05:15:44;24.30;99.90
41876;DHT22;27555;50.808;4.402;2023-07-09T05:18:12;24.40;99.90
41876;DHT22;27555;50.808;4.402;2023-07-09T05:20:38;24.50;99.90
41876;DHT22;27555;50.808;4.402;2023-07-09T05:23:04;24.60;99.90
41876;DHT22;27555;50.808;4.402;2023-07-09T05:25:29;24.70;99.90
41876;DHT22;27555;50.808;4.402;2023-07-09T05:27:55;24.80;99.90
41876;DHT22;27555;50.808;4.402;2023-07-09T05:30:20;25.00;99.90
41876;DHT22;27555;50.808;4.402;2023-07-09T05:32:46;25.10;99.90
41876;DHT22;27555;50.808;4.402;2023-07-09T05:35:12;25.20;99.90
41876;DHT22;27555;50.808;4.402;2023-07-09T05:37:38;25.20;99.90
41876;DHT22;27555;50.808;4.402;2023-07-09T05:40:05;25.30;99.90
41876;DHT22;27555;50.808;4.402;2023-07-09T05:42:32;25.40;99.90
41876;DHT22;27555;50.808;4.402;2023-07-09T05:44:57;25.50;99.90
41876;DHT22;27555;50.808;4.402;2023-07-09T05:47:24;25.60;99.90
41876;DHT22;27555;50.808;4.402;2023-07-09T05:49:49;25.80;99.90
41876;DHT22;27555;50.808;4.402;2023-07-09T05:52:21;26.00;99.90
41876;DHT22;27555;50.808;4.402;2023-07-09T05:54:49;26.00;99.90
41876;DHT22;27555;50.808;4.402;2023-07-09T05:57:15;26.10;99.90
41876;DHT22;27555;50.808;4.402;2023-07-09T05:59:40;26.10;99.90
41876;DHT22;27555;50.808;4.402;2023-07-09T06:02:19;26.00;99.90
41876;DHT22;27555;50.808;4.402;2023-07-09T06:04:44;26.00;99.90
41876;DHT22;27555;50.808;4.402;2023-07-09T06:07:11;26.10;99.90
41876;DHT22;27555;50.808;4.402;2023-07-09T06:09:39;26.10;99.90
41876;DHT22;27555;50.808;4.402;2023-07-09T06:12:05;26.10;99.90
41876;DHT22;27555;50.808;4.402;2023-07-09T06:14:31;26.30;99.90
41876;DHT22;27555;50.808;4.402;2023-07-09T06:16:58;26.20;99.90
41876;DHT22;27555;50.808;4.402;2023-07-09T06:19:24;26.30;99.80
41876;DHT22;27555;50.808;4.402;2023-07-09T06:21:49;26.40;99.90
41876;DHT22;27555;50.808;4.402;2023-07-09T06:24:15;26.60;99.90
41876;DHT22;27555;50.808;4.402;2023-07-09T06:26:41;26.60;99.70
41876;DHT22;27555;50.808;4.402;2023-07-09T06:29:07;26.40;99.90
41876;DHT22;27555;50.808;4.402;2023-07-09T06:31:32;26.50;99.90
41876;DHT22;27555;50.808;4.402;2023-07-09T06:33:58;26.40;99.90
41876;DHT22;27555;50.808;4.402;2023-07-09T06:36:23;26.40;99.90
41876;DHT22;27555;50.808;4.402;2023-07-09T06:38:49;26.10;99.90
41876;DHT22;27555;50.808;4.402;2023-07-09T06:41:15;26.20;99.90
41876;DHT22;27555;50.808;4.402;2023-07-09T06:43:41;25.90;99.90
41876;DHT22;27555;50.808;4.402;2023-07-09T06:46:11;25.60;99.90
41876;DHT22;27555;50.808;4.402;2023-07-09T06:48:37;25.70;99.90
41876;DHT22;27555;50.808;4.402;2023-07-09T06:51:03;26.40;99.90
41876;DHT22;27555;50.808;4.402;2023-07-09T06:53:29;27.50;99.40
41876;DHT22;27555;50.808;4.402;2023-07-09T06:55:55;28.20;98.00
41876;DHT22;27555;50.808;4.402;2023-07-09T06:58:24;29.00;97.30
41876;DHT22;27555;50.808;4.402;2023-07-09T07:00:51;29.80;96.10
41876;DHT22;27555;50.808;4.402;2023-07-09T07:03:17;30.60;95.30
41876;DHT22;27555;50.808;4.402;2023-07-09T07:05:47;31.40;94.00
41876;DHT22;27555;50.808;4.402;2023-07-09T07:08:19;31.10;93.30
41876;DHT22;27555;50.808;4.402;2023-07-09T07:10:47;31.50;93.20
41876;DHT22;27555;50.808;4.402;2023-07-09T07:13:14;32.30;92.30
41876;DHT22;27555;50.808;4.402;2023-07-09T07:15:40;32.70;91.80
41876;DHT22;27555;50.808;4.402;2023-07-09T07:18:06;32.70;91.50
41876;DHT22;27555;50.808;4.402;2023-07-09T07:20:32;33.00;91.20
41876;DHT22;27555;50.808;4.402;2023-07-09T07:22:58;33.20;90.90
41876;DHT22;27555;50.808;4.402;2023-07-09T07:25:24;33.50;90.60
41876;DHT22;27555;50.808;4.402;2023-07-09T07:27:50;33.20;90.30
41876;DHT22;27555;50.808;4.402;2023-07-09T07:30:17;32.90;90.80
41876;DHT22;27555;50.808;4.402;2023-07-09T07:32:45;33.40;90.50
41876;DHT22;27555;50.808;4.402;2023-07-09T07:35:12;34.00;90.00
41876;DHT22;27555;50.808;4.402;2023-07-09T07:37:41;34.50;89.20
41876;DHT22;27555;50.808;4.402;2023-07-09T07:40:07;34.50;88.80
41876;DHT22;27555;50.808;4.402;2023-07-09T07:42:33;34.40;89.00
41876;DHT22;27555;50.808;4.402;2023-07-09T07:44:59;34.80;87.80
41876;DHT22;27555;50.808;4.402;2023-07-09T07:47:25;34.60;88.10
41876;DHT22;27555;50.808;4.402;2023-07-09T07:49:53;34.00;87.50
41876;DHT22;27555;50.808;4.402;2023-07-09T07:52:18;33.90;88.30
41876;DHT22;27555;50.808;4.402;2023-07-09T07:54:44;34.40;87.40
41876;DHT22;27555;50.808;4.402;2023-07-09T07:57:10;34.40;87.40
41876;DHT22;27555;50.808;4.402;2023-07-09T07:59:36;34.90;87.20
41876;DHT22;27555;50.808;4.402;2023-07-09T08:02:03;35.00;86.00
41876;DHT22;27555;50.808;4.402;2023-07-09T08:04:29;35.30;85.60
41876;DHT22;27555;50.808;4.402;2023-07-09T08:06:55;35.50;85.40
41876;DHT22;27555;50.808;4.402;2023-07-09T08:09:21;35.80;84.80
41876;DHT22;27555;50.808;4.402;2023-07-09T08:11:46;36.00;84.50
41876;DHT22;27555;50.808;4.402;2023-07-09T08:14:12;36.30;84.00
41876;DHT22;27555;50.808;4.402;2023-07-09T08:16:38;36.10;84.00
41876;DHT22;27555;50.808;4.402;2023-07-09T08:19:04;36.00;83.80
41876;DHT22;27555;50.808;4.402;2023-07-09T08:21:30;36.50;82.70
41876;DHT22;27555;50.808;4.402;2023-07-09T08:23:56;36.90;81.80
41876;DHT22;27555;50.808;4.402;2023-07-09T08:26:22;37.00;81.30
41876;DHT22;27555;50.808;4.402;2023-07-09T08:28:50;37.10;80.40
41876;DHT22;27555;50.808;4.402;2023-07-09T08:31:15;36.70;80.10
41876;DHT22;27555;50.808;4.402;2023-07-09T08:33:41;36.90;79.40
41876;DHT22;27555;50.808;4.402;2023-07-09T08:36:07;37.20;78.80
41876;DHT22;27555;50.808;4.402;2023-07-09T08:38:32;37.50;77.70
41876;DHT22;27555;50.808;4.402;2023-07-09T08:41:08;37.30;77.90
41876;DHT22;27555;50.808;4.402;2023-07-09T08:47:00;36.00;78.50
41876;DHT22;27555;50.808;4.402;2023-07-09T08:54:56;37.60;77.70
41876;DHT22;27555;50.808;4.402;2023-07-09T08:57:27;37.50;77.20
41876;DHT22;27555;50.808;4.402;2023-07-09T08:59:59;37.70;76.50
41876;DHT22;27555;50.808;4.402;2023-07-09T09:02:36;38.00;76.20
41876;DHT22;27555;50.808;4.402;2023-07-09T09:05:05;38.40;75.70
41876;DHT22;27555;50.808;4.402;2023-07-09T09:07:44;38.40;75.50
41876;DHT22;27555;50.808;4.402;2023-07-09T09:10:18;38.00;75.90
41876;DHT22;27555;50.808;4.402;2023-07-09T09:13:10;38.50;75.30
41876;DHT22;27555;50.808;4.402;2023-07-09T09:15:39;38.90;74.80
41876;DHT22;27555;50.808;4.402;2023-07-09T09:18:26;39.10;74.50
41876;DHT22;27555;50.808;4.402;2023-07-09T09:21:01;39.00;74.60
41876;DHT22;27555;50.808;4.402;2023-07-09T09:23:38;39.00;74.50
41876;DHT22;27555;50.808;4.402;2023-07-09T09:26:11;38.20;75.30
41876;DHT22;27555;50.808;4.402;2023-07-09T09:28:40;38.50;74.90
41876;DHT22;27555;50.808;4.402;2023-07-09T09:31:09;38.50;74.80
41876;DHT22;27555;50.808;4.402;2023-07-09T09:33:47;38.50;74.90
41876;DHT22;27555;50.808;4.402;2023-07-09T09:36:21;38.80;74.10
41876;DHT22;27555;50.808;4.402;2023-07-09T09:38:47;39.10;73.70
41876;DHT22;27555;50.808;4.402;2023-07-09T09:41:22;39.30;73.60
41876;DHT22;27555;50.808;4.402;2023-07-09T09:43:52;39.70;72.90
41876;DHT22;27555;50.808;4.402;2023-07-09T09:46:26;39.80;72.60
41876;DHT22;27555;50.808;4.402;2023-07-09T09:48:58;38.70;72.80
41876;DHT22;27555;50.808;4.402;2023-07-09T09:51:24;39.00;73.10
41876;DHT22;27555;50.808;4.402;2023-07-09T09:53:52;38.80;73.00
41876;DHT22;27555;50.808;4.402;2023-07-09T09:56:24;39.50;72.90
41876;DHT22;27555;50.808;4.402;2023-07-09T09:58:53;39.60;72.30
41876;DHT22;27555;50.808;4.402;2023-07-09T10:01:20;39.50;72.80
41876;DHT22;27555;50.808;4.402;2023-07-09T10:03:50;39.30;73.50
41876;DHT22;27555;50.808;4.402;2023-07-09T10:06:19;39.60;73.40
41876;DHT22;27555;50.808;4.402;2023-07-09T10:09:12;39.40;73.40
41876;DHT22;27555;50.808;4.402;2023-07-09T10:16:56;37.20;76.00
41876;DHT22;27555;50.808;4.402;2023-07-09T10:19:51;37.20;76.40
41876;DHT22;27555;50.808;4.402;2023-07-09T10:33:10;34.80;79.60
41876;DHT22;27555;50.808;4.402;2023-07-09T10:35:57;34.80;79.90
41876;DHT22;27555;50.808;4.402;2023-07-09T10:41:13;34.40;80.20
41876;DHT22;27555;50.808;4.402;2023-07-09T10:43:47;34.10;81.10
41876;DHT22;27555;50.808;4.402;2023-07-09T10:46:23;34.00;81.60
41876;DHT22;27555;50.808;4.402;2023-07-09T10:48:51;33.70;82.20
41876;DHT22;27555;50.808;4.402;2023-07-09T10:51:38;33.40;82.80
41876;DHT22;27555;50.808;4.402;2023-07-09T10:56:56;32.90;82.70
41876;DHT22;27555;50.808;4.402;2023-07-09T10:59:31;32.40;83.50
41876;DHT22;27555;50.808;4.402;2023-07-09T11:02:20;31.70;84.60
41876;DHT22;27555;50.808;4.402;2023-07-09T11:04:51;30.80;86.80
41876;DHT22;27555;50.808;4.402;2023-07-09T11:08:02;30.90;86.40
41876;DHT22;27555;50.808;4.402;2023-07-09T11:10:34;30.90;86.60
41876;DHT22;27555;50.808;4.402;2023-07-09T11:13:12;30.80;86.80
41876;DHT22;27555;50.808;4.402;2023-07-09T11:15:42;30.80;86.50
41876;DHT22;27555;50.808;4.402;2023-07-09T11:18:16;30.80;87.00
41876;DHT22;27555;50.808;4.402;2023-07-09T11:20:46;30.80;87.20
41876;DHT22;27555;50.808;4.402;2023-07-09T11:23:23;30.20;88.30
41876;DHT22;27555;50.808;4.402;2023-07-09T11:26:03;29.80;89.20
41876;DHT22;27555;50.808;4.402;2023-07-09T11:28:35;29.70;89.60
41876;DHT22;27555;50.808;4.402;2023-07-09T11:31:16;29.70;89.70
41876;DHT22;27555;50.808;4.402;2023-07-09T11:33:47;29.80;88.50
41876;DHT22;27555;50.808;4.402;2023-07-09T11:36:23;29.70;88.50
41876;DHT22;27555;50.808;4.402;2023-07-09T11:38:48;29.50;89.10
41876;DHT22;27555;50.808;4.402;2023-07-09T11:47:25;28.70;90.70
41876;DHT22;27555;50.808;4.402;2023-07-09T11:49:54;28.60;90.60
41876;DHT22;27555;50.808;4.402;2023-07-09T11:52:45;28.70;90.50
41876;DHT22;27555;50.808;4.402;2023-07-09T11:55:19;28.50;90.60
41876;DHT22;27555;50.808;4.402;2023-07-09T11:57:53;28.40;90.70
41876;DHT22;27555;50.808;4.402;2023-07-09T12:00:19;28.00;91.10
41876;DHT22;27555;50.808;4.402;2023-07-09T12:02:44;27.90;91.30
41876;DHT22;27555;50.808;4.402;2023-07-09T12:05:10;27.90;91.30
41876;DHT22;27555;50.808;4.402;2023-07-09T12:07:36;28.00;91.10
41876;DHT22;27555;50.808;4.402;2023-07-09T12:10:08;28.20;90.90
41876;DHT22;27555;50.808;4.402;2023-07-09T12:12:42;28.60;90.40
41876;DHT22;27555;50.808;4.402;2023-07-09T12:15:28;28.80;90.30
41876;DHT22;27555;50.808;4.402;2023-07-09T12:17:57;28.90;90.60
41876;DHT22;27555;50.808;4.402;2023-07-09T12:20:24;28.70;91.30
41876;DHT22;27555;50.808;4.402;2023-07-09T12:22:49;28.50;91.50
41876;DHT22;27555;50.808;4.402;2023-07-09T12:25:24;28.60;92.00
41876;DHT22;27555;50.808;4.402;2023-07-09T12:27:50;28.20;93.80
41876;DHT22;27555;50.808;4.402;2023-07-09T12:30:16;27.90;95.20
41876;DHT22;27555;50.808;4.402;2023-07-09T12:32:46;27.40;96.70
41876;DHT22;27555;50.808;4.402;2023-07-09T12:35:13;26.90;98.10
41876;DHT22;27555;50.808;4.402;2023-07-09T12:37:42;26.50;99.70
41876;DHT22;27555;50.808;4.402;2023-07-09T12:40:17;26.10;99.90
41876;DHT22;27555;50.808;4.402;2023-07-09T12:42:45;26.00;99.90
41876;DHT22;27555;50.808;4.402;2023-07-09T12:45:19;26.00;99.90
41876;DHT22;27555;50.808;4.402;2023-07-09T12:47:46;25.60;99.90
41876;DHT22;27555;50.808;4.402;2023-07-09T12:50:34;25.30;99.90
41876;DHT22;27555;50.808;4.402;2023-07-09T12:53:03;25.00;99.90
41876;DHT22;27555;50.808;4.402;2023-07-09T12:55:41;24.90;99.90
41876;DHT22;27555;50.808;4.402;2023-07-09T12:58:10;25.10;99.90
41876;DHT22;27555;50.808;4.402;2023-07-09T13:00:37;25.30;99.90
41876;DHT22;27555;50.808;4.402;2023-07-09T13:03:03;25.80;99.90
41876;DHT22;27555;50.808;4.402;2023-07-09T13:05:28;26.00;99.90
41876;DHT22;27555;50.808;4.402;2023-07-09T13:08:03;26.00;99.90
41876;DHT22;27555;50.808;4.402;2023-07-09T13:10:31;26.00;99.90
41876;DHT22;27555;50.808;4.402;2023-07-09T13:13:02;26.10;99.90
41876;DHT22;27555;50.808;4.402;2023-07-09T13:15:49;26.40;99.90
41876;DHT22;27555;50.808;4.402;2023-07-09T13:18:14;26.40;99.90
41876;DHT22;27555;50.808;4.402;2023-07-09T13:20:42;26.20;99.90
41876;DHT22;27555;50.808;4.402;2023-07-09T13:23:10;26.40;99.90
41876;DHT22;27555;50.808;4.402;2023-07-09T13:25:38;26.50;99.90
41876;DHT22;27555;50.808;4.402;2023-07-09T13:28:04;26.40;99.90
41876;DHT22;27555;50.808;4.402;2023-07-09T13:30:29;26.50;99.90
41876;DHT22;27555;50.808;4.402;2023-07-09T13:32:57;26.90;99.90
41876;DHT22;27555;50.808;4.402;2023-07-09T13:35:22;27.30;99.90
41876;DHT22;27555;50.808;4.402;2023-07-09T13:37:48;27.40;99.90
41876;DHT22;27555;50.808;4.402;2023-07-09T13:40:15;27.40;99.90
41876;DHT22;27555;50.808;4.402;2023-07-09T13:42:44;27.40;99.90
41876;DHT22;27555;50.808;4.402;2023-07-09T13:45:21;27.30;99.90
41876;DHT22;27555;50.808;4.402;2023-07-09T13:47:48;27.40;99.90
41876;DHT22;27555;50.808;4.402;2023-07-09T13:50:15;27.40;99.90
41876;DHT22;27555;50.808;4.402;2023-07-09T13:52:42;27.30;99.90
41876;DHT22;27555;50.808;4.402;2023-07-09T13:55:20;27.60;99.90
41876;DHT22;27555;50.808;4.402;2023-07-09T13:57:47;27.60;99.90
41876;DHT22;27555;50.808;4.402;2023-07-09T14:00:13;27.40;99.90
41876;DHT22;27555;50.808;4.402;2023-07-09T14:02:39;27.50;99.90
41876;DHT22;27555;50.808;4.402;2023-07-09T14:05:07;27.80;99.90
41876;DHT22;27555;50.808;4.402;2023-07-09T14:07:36;27.90;99.90
41876;DHT22;27555;50.808;4.402;2023-07-09T14:10:05;27.70;99.90
41876;DHT22;27555;50.808;4.402;2023-07-09T14:12:31;28.00;99.90
41876;DHT22;27555;50.808;4.402;2023-07-09T14:14:59;27.80;99.90
41876;DHT22;27555;50.808;4.402;2023-07-09T14:17:25;27.90;99.90
41876;DHT22;27555;50.808;4.402;2023-07-09T14:19:52;27.80;99.90
41876;DHT22;27555;50.808;4.402;2023-07-09T14:22:44;27.90;99.90
41876;DHT22;27555;50.808;4.402;2023-07-09T14:25:22;28.40;99.90
41876;DHT22;27555;50.808;4.402;2023-07-09T14:27:50;28.60;99.90
41876;DHT22;27555;50.808;4.402;2023-07-09T14:30:18;28.90;99.90
41876;DHT22;27555;50.808;4.402;2023-07-09T14:32:45;28.90;99.90
41876;DHT22;27555;50.808;4.402;2023-07-09T14:35:13;28.40;99.90
41876;DHT22;27555;50.808;4.402;2023-07-09T14:37:39;28.20;99.90
41876;DHT22;27555;50.808;4.402;2023-07-09T14:40:05;27.90;99.90
41876;DHT22;27555;50.808;4.402;2023-07-09T14:42:31;28.00;99.90
41876;DHT22;27555;50.808;4.402;2023-07-09T14:44:57;28.00;99.90
41876;DHT22;27555;50.808;4.402;2023-07-09T14:47:22;27.70;99.90
41876;DHT22;27555;50.808;4.402;2023-07-09T14:49:50;27.60;99.90
41876;DHT22;27555;50.808;4.402;2023-07-09T14:52:18;27.80;99.90
41876;DHT22;27555;50.808;4.402;2023-07-09T14:54:45;28.20;99.90
41876;DHT22;27555;50.808;4.402;2023-07-09T14:57:24;28.10;99.90
41876;DHT22;27555;50.808;4.402;2023-07-09T14:59:52;28.00;99.90
41876;DHT22;27555;50.808;4.402;2023-07-09T15:02:34;27.90;99.90
41876;DHT22;27555;50.808;4.402;2023-07-09T15:05:05;27.80;99.90
41876;DHT22;27555;50.808;4.402;2023-07-09T15:07:33;27.80;99.90
41876;DHT22;27555;50.808;4.402;2023-07-09T15:09:59;28.00;99.90
41876;DHT22;27555;50.808;4.402;2023-07-09T15:12:28;28.00;99.90
41876;DHT22;27555;50.808;4.402;2023-07-09T15:15:20;27.90;99.90
41876;DHT22;27555;50.808;4.402;2023-07-09T15:17:48;28.10;99.90
41876;DHT22;27555;50.808;4.402;2023-07-09T15:20:15;28.30;99.90
41876;DHT22;27555;50.808;4.402;2023-07-09T15:22:42;28.30;99.90
41876;DHT22;27555;50.808;4.402;2023-07-09T15:25:13;28.40;99.90
41876;DHT22;27555;50.808;4.402;2023-07-09T15:27:39;28.20;99.90
41876;DHT22;27555;50.808;4.402;2023-07-09T15:30:13;28.30;99.90
41876;DHT22;27555;50.808;4.402;2023-07-09T15:32:39;28.10;99.90
41876;DHT22;27555;50.808;4.402;2023-07-09T15:35:05;27.90;99.90
41876;DHT22;27555;50.808;4.402;2023-07-09T15:37:30;28.00;99.90
41876;DHT22;27555;50.808;4.402;2023-07-09T15:39:56;28.00;99.90
41876;DHT22;27555;50.808;4.402;2023-07-09T15:42:21;28.00;99.90
41876;DHT22;27555;50.808;4.402;2023-07-09T15:44:47;28.10;99.90
41876;DHT22;27555;50.808;4.402;2023-07-09T15:47:17;28.10;99.90
41876;DHT22;27555;50.808;4.402;2023-07-09T15:49:43;28.50;99.90
41876;DHT22;27555;50.808;4.402;2023-07-09T15:52:09;28.80;99.90
41876;DHT22;27555;50.808;4.402;2023-07-09T15:54:35;29.00;99.90
41876;DHT22;27555;50.808;4.402;2023-07-09T15:57:01;28.80;99.90
41876;DHT22;27555;50.808;4.402;2023-07-09T15:59:32;29.00;99.90
41876;DHT22;27555;50.808;4.402;2023-07-09T16:01:59;28.80;99.90
41876;DHT22;27555;50.808;4.402;2023-07-09T16:04:26;28.80;99.90
41876;DHT22;27555;50.808;4.402;2023-07-09T16:06:52;28.60;99.90
41876;DHT22;27555;50.808;4.402;2023-07-09T16:09:18;28.50;99.90
41876;DHT22;27555;50.808;4.402;2023-07-09T16:11:49;28.40;99.90
41876;DHT22;27555;50.808;4.402;2023-07-09T16:14:27;28.50;99.90
41876;DHT22;27555;50.808;4.402;2023-07-09T16:16:55;28.30;99.60
41876;DHT22;27555;50.808;4.402;2023-07-09T16:19:23;27.90;99.90